createdAt,value
2022-12-20T00:01:30.747Z,78949.75
2022-12-20T00:03:58.657Z,78963.25
2022-12-20T00:06:26.097Z,78965.19
2022-12-20T00:08:56.505Z,78963.25
2022-12-20T00:11:23.413Z,78953.59
2022-12-20T00:13:50.070Z,78949.75
2022-12-20T00:16:18.054Z,78951.69
2022-12-20T00:18:45.166Z,78945.91
2022-12-20T00:21:12.898Z,78942.03
2022-12-20T00:23:39.586Z,78940.09
2022-12-20T00:26:06.157Z,78942.03
2022-12-20T00:28:33.563Z,78942.03
2022-12-20T00:31:00.180Z,78938.19
2022-12-20T00:33:29.532Z,78945.91
2022-12-20T00:35:56.635Z,78943.97
2022-12-20T00:38:26.200Z,78942.03
2022-12-20T00:40:59.880Z,78936.25
2022-12-20T00:43:26.533Z,78930.47
2022-12-20T00:45:53.294Z,78934.31
2022-12-20T00:48:19.919Z,78949.75
2022-12-20T00:50:46.495Z,78942.03
2022-12-20T00:53:13.237Z,78938.19
2022-12-20T00:55:43.637Z,78936.25
2022-12-20T00:58:10.301Z,78943.97
2022-12-20T01:00:37.498Z,78942.03
2022-12-20T01:03:04.551Z,78947.81
2022-12-20T01:05:31.603Z,78947.81
2022-12-20T01:07:58.497Z,78961.31
2022-12-20T01:10:25.283Z,78957.47
2022-12-20T01:12:51.846Z,78957.47
2022-12-20T01:15:18.455Z,78957.47
2022-12-20T01:17:45.100Z,78953.59
2022-12-20T01:20:11.887Z,78951.69
2022-12-20T01:22:43.801Z,78949.75
2022-12-20T01:25:13.820Z,78951.69
2022-12-20T01:27:40.393Z,78945.91
2022-12-20T01:30:07.284Z,78936.25
2022-12-20T01:32:33.975Z,78926.63
2022-12-20T01:35:00.548Z,78922.75
2022-12-20T01:37:27.102Z,78922.75
2022-12-20T01:39:53.691Z,78918.91
2022-12-20T01:42:20.176Z,78918.91
2022-12-20T01:44:52.550Z,78916.97
2022-12-20T01:47:19.253Z,78926.63
2022-12-20T01:49:47.967Z,78918.91
2022-12-20T01:52:23.909Z,78922.75
2022-12-20T01:54:50.528Z,78918.91
2022-12-20T01:57:22.687Z,78926.63
2022-12-20T01:59:50.346Z,78918.91
2022-12-20T02:02:17.663Z,78920.81
2022-12-20T02:04:44.328Z,78926.63
2022-12-20T02:07:13.828Z,78932.41
2022-12-20T02:09:40.463Z,78926.63
2022-12-20T02:12:06.978Z,78922.75
2022-12-20T02:14:44.990Z,78926.63
2022-12-20T02:17:30.074Z,78924.69
2022-12-20T02:20:15.756Z,78926.63
2022-12-20T02:23:00.889Z,78928.53
2022-12-20T02:25:38.685Z,78924.69
2022-12-20T02:28:24.069Z,78926.63
2022-12-20T02:30:55.051Z,78915.03
2022-12-20T02:33:25.071Z,78911.19
2022-12-20T02:35:51.716Z,78905.41
2022-12-20T02:38:28.645Z,78903.47
2022-12-20T02:41:02.739Z,78897.69
2022-12-20T02:43:49.527Z,78895.75
2022-12-20T02:46:16.915Z,78899.63
2022-12-20T02:48:47.465Z,78905.41
2022-12-20T02:51:16.115Z,78895.75
2022-12-20T02:53:43.163Z,78907.31
2022-12-20T02:56:16.430Z,78899.63
2022-12-20T02:58:49.304Z,78891.91
2022-12-20T03:01:31.985Z,78893.84
2022-12-20T03:03:59.035Z,78888.03
2022-12-20T03:06:25.953Z,78888.03
2022-12-20T03:08:52.954Z,78891.91
2022-12-20T03:11:22.096Z,78884.19
2022-12-20T03:13:48.775Z,78888.03
2022-12-20T03:16:15.516Z,78880.34
2022-12-20T03:18:42.311Z,78888.03
2022-12-20T03:21:09.398Z,78884.19
2022-12-20T03:23:36.031Z,78876.47
2022-12-20T03:26:02.624Z,78872.63
2022-12-20T03:28:40.251Z,78874.53
2022-12-20T03:31:08.304Z,78866.84
2022-12-20T03:33:43.375Z,78876.47
2022-12-20T03:36:10.158Z,78876.47
2022-12-20T03:38:37.020Z,78878.41
2022-12-20T03:41:05.596Z,78868.75
2022-12-20T03:43:32.350Z,78868.75
2022-12-20T03:45:59.233Z,78866.84
2022-12-20T03:48:30.259Z,78861.06
2022-12-20T03:50:56.907Z,78849.47
2022-12-20T03:53:23.696Z,78853.34
2022-12-20T03:55:50.979Z,78853.34
2022-12-20T03:58:17.598Z,78862.97
2022-12-20T04:00:44.119Z,78866.84
2022-12-20T04:03:29.287Z,78862.97
2022-12-20T04:05:56.068Z,78862.97
2022-12-20T04:08:22.773Z,78868.75
2022-12-20T04:11:09.425Z,78868.75
2022-12-20T04:13:37.813Z,78866.84
2022-12-20T04:16:05.402Z,78870.69
2022-12-20T04:18:32.959Z,78872.63
2022-12-20T04:21:01.631Z,78874.53
2022-12-20T04:23:30.803Z,78876.47
2022-12-20T04:25:58.212Z,78861.06
2022-12-20T04:28:24.841Z,78868.75
2022-12-20T04:30:53.385Z,78857.19
2022-12-20T04:33:24.379Z,78864.91
2022-12-20T04:35:51.936Z,78864.91
2022-12-20T04:38:22.020Z,78864.91
2022-12-20T04:40:50.047Z,78862.97
2022-12-20T04:43:17.159Z,78857.19
2022-12-20T04:45:47.077Z,78855.25
2022-12-20T04:48:46.024Z,78862.97
2022-12-20T04:51:00.679Z,78853.34
2022-12-20T04:53:46.575Z,78845.63
2022-12-20T04:56:23.097Z,78837.91
2022-12-20T04:58:50.676Z,78841.78
2022-12-20T05:01:17.921Z,78849.47
2022-12-20T05:03:49.489Z,78845.63
2022-12-20T05:06:17.008Z,78835.97
2022-12-20T05:08:43.682Z,78834.06
2022-12-20T05:11:10.496Z,78834.06
2022-12-20T05:13:37.516Z,78834.06
2022-12-20T05:16:04.639Z,78826.34
2022-12-20T05:18:33.906Z,78820.56
2022-12-20T05:21:23.481Z,78814.78
2022-12-20T05:24:11.187Z,78818.63
2022-12-20T05:26:55.555Z,78822.47
2022-12-20T05:29:22.174Z,78824.41
2022-12-20T05:31:48.956Z,78822.47
2022-12-20T05:34:18.250Z,78826.34
2022-12-20T05:36:50.433Z,78826.34
2022-12-20T05:39:18.345Z,78837.91
2022-12-20T05:41:46.434Z,78830.19
2022-12-20T05:44:13.438Z,78824.41
2022-12-20T05:46:44.216Z,78824.41
2022-12-20T05:49:16.075Z,78824.41
2022-12-20T05:51:42.958Z,78818.63
2022-12-20T05:54:21.443Z,78820.56
2022-12-20T05:56:54.283Z,78830.19
2022-12-20T05:59:26.317Z,78824.41
2022-12-20T06:01:53.499Z,78826.34
2022-12-20T06:04:21.845Z,78826.34
2022-12-20T06:06:48.990Z,78830.19
2022-12-20T06:09:19.067Z,78830.19
2022-12-20T06:11:54.131Z,78828.28
2022-12-20T06:14:22.109Z,78834.06
2022-12-20T06:16:48.820Z,78828.28
2022-12-20T06:19:21.345Z,78832.13
2022-12-20T06:21:50.256Z,78820.56
2022-12-20T06:24:21.305Z,78814.78
2022-12-20T06:26:48.404Z,78812.84
2022-12-20T06:29:17.538Z,78803.19
2022-12-20T06:31:50.507Z,78816.69
2022-12-20T06:34:17.720Z,78822.47
2022-12-20T06:36:44.668Z,78818.63
2022-12-20T06:39:17.544Z,78822.47
2022-12-20T06:41:59.656Z,78818.63
2022-12-20T06:44:26.179Z,78814.78
2022-12-20T06:46:53.315Z,78818.63
2022-12-20T06:49:20.253Z,78814.78
2022-12-20T06:51:47.504Z,78818.63
2022-12-20T06:54:14.861Z,78820.56
2022-12-20T06:56:41.929Z,78830.19
2022-12-20T06:59:10.867Z,78830.19
2022-12-20T07:01:37.583Z,78832.13
2022-12-20T07:04:04.312Z,78835.97
2022-12-20T07:06:30.872Z,78828.28
2022-12-20T07:08:57.433Z,78822.47
2022-12-20T07:11:24.016Z,78826.34
2022-12-20T07:13:55.571Z,78822.47
2022-12-20T07:16:22.309Z,78818.63
2022-12-20T07:18:55.443Z,78814.78
2022-12-20T07:21:22.088Z,78818.63
2022-12-20T07:23:49.053Z,78822.47
2022-12-20T07:26:15.714Z,78814.78
2022-12-20T07:28:42.414Z,78818.63
2022-12-20T07:31:09.138Z,78826.34
2022-12-20T07:33:37.314Z,78822.47
2022-12-20T07:36:05.133Z,78830.19
2022-12-20T07:38:31.723Z,78826.34
2022-12-20T07:40:58.265Z,78826.34
2022-12-20T07:43:25.322Z,78822.47
2022-12-20T07:45:56.246Z,78826.34
2022-12-20T07:48:24.109Z,78814.78
2022-12-20T07:50:55.791Z,78818.63
2022-12-20T07:53:23.564Z,78808.97
2022-12-20T07:55:50.355Z,78797.41
2022-12-20T07:58:19.012Z,78791.63
2022-12-20T08:00:46.018Z,78795.50
2022-12-20T08:03:15.311Z,78791.63
2022-12-20T08:05:44.301Z,78803.19
2022-12-20T08:08:10.956Z,78816.69
2022-12-20T08:10:38.661Z,78826.34
2022-12-20T08:13:06.319Z,78830.19
2022-12-20T08:15:34.141Z,78830.19
2022-12-20T08:18:00.804Z,78832.13
2022-12-20T08:20:27.438Z,78830.19
2022-12-20T08:22:54.270Z,78828.28
2022-12-20T08:25:21.644Z,78820.56
2022-12-20T08:27:48.240Z,78834.06
2022-12-20T08:30:14.864Z,78830.19
2022-12-20T08:32:41.401Z,78830.19
2022-12-20T08:35:08.452Z,78818.63
2022-12-20T08:37:35.109Z,78822.47
2022-12-20T08:40:01.757Z,78818.63
2022-12-20T08:42:28.375Z,78814.78
2022-12-20T08:44:55.854Z,78814.78
2022-12-20T08:47:22.553Z,78795.50
2022-12-20T08:49:49.113Z,78799.34
2022-12-20T08:52:15.646Z,78797.41
2022-12-20T08:54:42.196Z,78791.63
2022-12-20T08:57:08.823Z,78795.50
2022-12-20T08:59:35.337Z,78801.28
2022-12-20T09:02:02.076Z,78803.19
2022-12-20T09:04:28.828Z,78803.19
2022-12-20T09:07:07.221Z,78791.63
2022-12-20T09:09:33.806Z,78778.13
2022-12-20T09:12:00.588Z,78787.78
2022-12-20T09:14:27.139Z,78787.78
2022-12-20T09:16:53.716Z,78787.78
2022-12-20T09:19:20.262Z,78791.63
2022-12-20T09:21:46.898Z,78791.63
2022-12-20T09:24:13.453Z,78787.78
2022-12-20T09:26:40.927Z,78783.91
2022-12-20T09:29:07.519Z,78780.06
2022-12-20T09:31:34.089Z,78783.91
2022-12-20T09:34:01.212Z,78782.00
2022-12-20T09:36:28.665Z,78778.13
2022-12-20T09:38:55.813Z,78762.72
2022-12-20T09:41:31.599Z,78760.78
2022-12-20T09:43:58.858Z,78758.84
2022-12-20T09:46:26.275Z,78753.06
2022-12-20T09:48:53.708Z,78753.06
2022-12-20T09:51:43.466Z,78753.06
2022-12-20T09:54:48.655Z,78741.50
2022-12-20T09:57:27.083Z,78733.78
2022-12-20T09:59:55.979Z,78731.84
2022-12-20T10:05:14.779Z,78722.22
2022-12-20T10:07:46.945Z,78726.06
2022-12-20T10:10:29.669Z,78712.56
2022-12-20T10:12:58.763Z,78718.34
2022-12-20T10:15:31.444Z,78710.66
2022-12-20T10:17:58.088Z,78728.00
2022-12-20T10:20:43.367Z,78716.44
2022-12-20T10:23:29.311Z,78710.66
2022-12-20T10:25:59.450Z,78701.00
2022-12-20T10:28:28.319Z,78695.22
2022-12-20T10:30:55.009Z,78687.50
2022-12-20T10:33:22.968Z,78689.44
2022-12-20T10:35:50.697Z,78691.38
2022-12-20T10:38:20.853Z,78672.09
2022-12-20T10:41:20.091Z,78679.78
2022-12-20T10:43:42.688Z,78679.78
2022-12-20T10:46:10.311Z,78677.88
2022-12-20T10:48:38.179Z,78679.78
2022-12-20T10:51:15.894Z,78679.78
2022-12-20T10:54:09.643Z,78670.16
2022-12-20T10:56:39.033Z,78672.09
2022-12-20T10:59:17.915Z,78664.38
2022-12-20T11:01:46.112Z,78654.72
2022-12-20T11:04:32.697Z,78660.50
2022-12-20T11:07:00.174Z,78645.09
2022-12-20T11:09:36.904Z,78662.44
2022-12-20T11:12:13.785Z,78658.59
2022-12-20T11:14:41.861Z,78652.81
2022-12-20T11:17:14.228Z,78660.50
2022-12-20T11:19:51.554Z,78648.94
2022-12-20T11:22:27.356Z,78648.94
2022-12-20T11:25:03.932Z,78648.94
2022-12-20T11:27:59.615Z,78641.22
2022-12-20T11:30:35.312Z,78629.66
2022-12-20T11:33:14.095Z,78629.66
2022-12-20T11:35:46.402Z,78633.53
2022-12-20T11:38:12.967Z,78629.66
2022-12-20T11:40:39.612Z,78621.94
2022-12-20T11:44:01.099Z,78618.09
2022-12-20T11:46:26.096Z,78621.94
2022-12-20T11:48:59.008Z,78618.09
2022-12-20T11:51:35.342Z,78610.38
2022-12-20T11:54:01.896Z,78610.38
2022-12-20T11:56:44.335Z,78606.53
2022-12-20T11:59:17.700Z,78606.53
2022-12-20T12:01:48.982Z,78606.53
2022-12-20T12:04:30.222Z,78602.66
2022-12-20T12:07:03.288Z,78610.38
2022-12-20T12:09:36.250Z,78606.53
2022-12-20T12:12:07.729Z,78587.25
2022-12-20T12:14:42.400Z,78581.47
2022-12-20T12:17:12.694Z,78583.38
2022-12-20T12:19:43.207Z,78575.66
2022-12-20T12:22:15.975Z,78575.66
2022-12-20T12:24:48.386Z,78575.66
2022-12-20T12:27:25.525Z,78567.97
2022-12-20T12:29:56.423Z,78552.53
2022-12-20T12:32:31.188Z,78564.09
2022-12-20T12:35:14.267Z,78567.97
2022-12-20T12:37:59.447Z,78564.09
2022-12-20T12:40:52.106Z,78554.47
2022-12-20T12:43:37.644Z,78554.47
2022-12-20T12:46:14.235Z,78552.53
2022-12-20T12:49:00.018Z,78556.38
2022-12-20T12:51:34.899Z,78560.25
2022-12-20T12:54:19.745Z,78567.97
2022-12-20T12:56:47.568Z,78556.38
2022-12-20T12:59:20.008Z,78556.38
2022-12-20T13:01:51.872Z,78556.38
2022-12-20T13:04:19.693Z,78550.59
2022-12-20T13:06:49.323Z,78560.25
2022-12-20T13:09:25.004Z,78564.09
2022-12-20T13:11:59.658Z,78566.03
2022-12-20T13:14:28.966Z,78556.38
2022-12-20T13:17:13.829Z,78566.03
2022-12-20T13:19:53.423Z,78564.09
2022-12-20T13:22:24.783Z,78556.38
2022-12-20T13:24:57.558Z,78558.31
2022-12-20T13:27:32.270Z,78558.31
2022-12-20T13:29:58.853Z,78556.38
2022-12-20T13:32:44.402Z,78556.38
2022-12-20T13:35:27.050Z,78556.38
2022-12-20T13:38:04.904Z,78564.09
2022-12-20T13:40:43.713Z,78575.66
2022-12-20T13:43:19.363Z,78579.53
2022-12-20T13:45:47.743Z,78569.88
2022-12-20T13:48:18.027Z,78560.25
2022-12-20T13:50:50.970Z,78562.19
2022-12-20T13:53:19.277Z,78571.81
2022-12-20T13:55:46.328Z,78567.97
2022-12-20T13:58:15.574Z,78562.19
2022-12-20T14:00:42.295Z,78560.25
2022-12-20T14:03:15.346Z,78552.53
2022-12-20T14:05:42.103Z,78546.75
2022-12-20T14:08:13.516Z,78548.69
2022-12-20T14:10:40.122Z,78556.38
2022-12-20T14:13:23.716Z,78544.81
2022-12-20T14:15:50.951Z,78540.97
2022-12-20T14:18:20.051Z,78552.53
2022-12-20T14:20:59.934Z,78550.59
2022-12-20T14:23:32.136Z,78560.25
2022-12-20T14:26:00.182Z,78552.53
2022-12-20T14:28:30.214Z,78550.59
2022-12-20T14:30:58.282Z,78544.81
2022-12-20T14:33:35.882Z,78548.69
2022-12-20T14:36:19.322Z,78542.91
2022-12-20T14:38:51.119Z,78542.91
2022-12-20T14:41:36.321Z,78546.75
2022-12-20T14:44:23.339Z,78544.81
2022-12-20T14:46:52.470Z,78542.91
2022-12-20T14:49:32.558Z,78539.03
2022-12-20T14:52:16.860Z,78529.41
2022-12-20T14:55:07.612Z,78529.41
2022-12-20T14:57:34.830Z,78529.41
2022-12-20T15:00:10.297Z,78537.09
2022-12-20T15:02:40.292Z,78529.41
2022-12-20T15:05:08.100Z,78535.19
2022-12-20T15:07:34.927Z,78533.25
2022-12-20T15:10:01.491Z,78537.09
2022-12-20T15:12:28.100Z,78533.25
2022-12-20T15:14:54.666Z,78533.25
2022-12-20T15:17:21.365Z,78533.25
2022-12-20T15:19:47.858Z,78537.09
2022-12-20T15:22:18.998Z,78533.25
2022-12-20T15:24:45.592Z,78529.41
2022-12-20T15:27:13.095Z,78527.47
2022-12-20T15:29:39.640Z,78525.53
2022-12-20T15:32:40.908Z,78515.91
2022-12-20T15:35:21.676Z,78519.75
2022-12-20T15:37:48.377Z,78513.97
2022-12-20T15:40:15.031Z,78513.97
2022-12-20T15:42:42.962Z,78513.97
2022-12-20T15:45:13.314Z,78525.53
2022-12-20T15:47:39.892Z,78517.81
2022-12-20T15:50:06.919Z,78517.81
2022-12-20T15:52:33.521Z,78513.97
2022-12-20T15:55:00.105Z,78531.31
2022-12-20T15:57:28.748Z,78535.19
2022-12-20T16:00:01.683Z,78529.41
2022-12-20T16:02:38.215Z,78525.53
2022-12-20T16:05:05.252Z,78513.97
2022-12-20T16:07:32.149Z,78515.91
2022-12-20T16:09:58.958Z,78515.91
2022-12-20T16:12:27.074Z,78517.81
2022-12-20T16:14:53.876Z,78513.97
2022-12-20T16:17:20.473Z,78519.75
2022-12-20T16:19:47.095Z,78513.97
2022-12-20T16:22:19.040Z,78512.03
2022-12-20T16:24:45.914Z,78504.34
2022-12-20T16:27:12.542Z,78502.41
2022-12-20T16:29:39.101Z,78513.97
2022-12-20T16:32:15.985Z,78506.25
2022-12-20T16:34:42.847Z,78494.69
2022-12-20T16:37:09.405Z,78500.47
2022-12-20T16:39:38.735Z,78488.91
2022-12-20T16:42:10.391Z,78492.75
2022-12-20T16:44:37.061Z,78490.84
2022-12-20T16:47:03.711Z,78483.13
2022-12-20T16:49:30.320Z,78483.13
2022-12-20T16:51:57.002Z,78488.91
2022-12-20T16:54:23.546Z,78494.69
2022-12-20T16:56:55.195Z,78492.75
2022-12-20T16:59:23.360Z,78483.13
2022-12-20T17:01:52.302Z,78488.91
2022-12-20T17:04:20.298Z,78479.25
2022-12-20T17:06:47.343Z,78483.13
2022-12-20T17:09:16.235Z,78486.97
2022-12-20T17:11:42.910Z,78477.34
2022-12-20T17:14:12.962Z,78471.56
2022-12-20T17:16:40.267Z,78481.19
2022-12-20T17:19:07.073Z,78481.19
2022-12-20T17:21:33.563Z,78479.25
2022-12-20T17:24:00.770Z,78475.41
2022-12-20T17:26:28.295Z,78483.13
2022-12-20T17:29:00.698Z,78479.25
2022-12-20T17:31:39.208Z,78479.25
2022-12-20T17:34:07.010Z,78483.13
2022-12-20T17:36:37.927Z,78483.13
2022-12-20T17:39:04.882Z,78483.13
2022-12-20T17:41:35.099Z,78479.25
2022-12-20T17:44:02.644Z,78479.25
2022-12-20T17:46:29.644Z,78475.41
2022-12-20T17:48:57.365Z,78463.84
2022-12-20T17:51:28.771Z,78465.78
2022-12-20T17:53:59.453Z,78463.84
2022-12-20T17:56:27.169Z,78471.56
2022-12-20T17:58:54.426Z,78471.56
2022-12-20T18:01:23.449Z,78473.47
2022-12-20T18:04:03.762Z,78473.47
2022-12-20T18:06:32.081Z,78479.25
2022-12-20T18:08:58.782Z,78479.25
2022-12-20T18:11:26.640Z,78475.41
2022-12-20T18:13:54.257Z,78471.56
2022-12-20T18:16:22.446Z,78469.63
2022-12-20T18:18:49.637Z,78467.69
2022-12-20T18:21:19.664Z,78463.84
2022-12-20T18:23:46.706Z,78461.91
2022-12-20T18:26:14.911Z,78463.84
2022-12-20T18:28:46.058Z,78454.19
2022-12-20T18:31:14.216Z,78459.97
2022-12-20T18:33:41.035Z,78452.28
2022-12-20T18:36:09.315Z,78448.41
2022-12-20T18:38:36.922Z,78446.50
2022-12-20T18:41:04.871Z,78448.41
2022-12-20T18:43:34.823Z,78440.69
2022-12-20T18:46:04.814Z,78444.56
2022-12-20T18:48:32.228Z,78440.69
2022-12-20T18:51:05.356Z,78425.28
2022-12-20T18:53:32.708Z,78429.13
2022-12-20T18:56:03.191Z,78431.06
2022-12-20T18:58:29.847Z,78433.00
2022-12-20T19:00:57.350Z,78429.13
2022-12-20T19:03:24.219Z,78433.00
2022-12-20T19:05:57.361Z,78423.34
2022-12-20T19:08:24.976Z,78413.72
2022-12-20T19:10:52.140Z,78423.34
2022-12-20T19:13:19.403Z,78417.56
2022-12-20T19:15:47.247Z,78425.28
2022-12-20T19:18:14.513Z,78419.50
2022-12-20T19:20:41.718Z,78415.63
2022-12-20T19:23:08.461Z,78406.00
2022-12-20T19:25:36.284Z,78402.16
2022-12-20T19:28:03.607Z,78398.28
2022-12-20T19:30:30.356Z,78404.06
2022-12-20T19:32:57.622Z,78413.72
2022-12-20T19:35:54.066Z,78413.72
2022-12-20T19:38:10.765Z,78398.28
2022-12-20T19:40:37.499Z,78396.34
2022-12-20T19:43:04.060Z,78386.72
2022-12-20T19:45:30.628Z,78392.50
2022-12-20T19:47:57.171Z,78390.56
2022-12-20T19:50:23.879Z,78392.50
2022-12-20T19:52:51.474Z,78394.44
2022-12-20T19:55:18.174Z,78386.72
2022-12-20T19:57:44.710Z,78379.00
2022-12-20T20:00:11.653Z,78367.44
2022-12-20T20:02:38.440Z,78367.44
2022-12-20T20:05:11.097Z,78371.28
2022-12-20T20:07:41.110Z,78367.44
2022-12-20T20:10:08.155Z,78363.59
2022-12-20T20:12:36.486Z,78357.78
2022-12-20T20:15:05.372Z,78355.88
2022-12-20T20:17:31.936Z,78359.72
2022-12-20T20:20:00.886Z,78352.00
2022-12-20T20:22:27.548Z,78342.38
2022-12-20T20:24:54.049Z,78344.31
2022-12-20T20:27:20.589Z,78352.00
2022-12-20T20:29:49.106Z,78346.22
2022-12-20T20:32:15.728Z,78346.22
2022-12-20T20:34:44.090Z,78350.09
2022-12-20T20:37:10.678Z,78344.31
2022-12-20T20:39:37.276Z,78338.53
2022-12-20T20:42:04.167Z,78340.44
2022-12-20T20:44:30.816Z,78336.59
2022-12-20T20:46:57.406Z,78336.59
2022-12-20T20:49:26.667Z,78334.66
2022-12-20T20:51:53.419Z,78321.16
2022-12-20T20:54:21.031Z,78332.72
2022-12-20T20:56:47.720Z,78338.53
2022-12-20T20:59:17.880Z,78338.53
2022-12-20T21:01:45.171Z,78342.38
2022-12-20T21:04:11.848Z,78340.44
2022-12-20T21:06:41.764Z,78340.44
2022-12-20T21:09:08.895Z,78336.59
2022-12-20T21:11:37.209Z,78348.16
2022-12-20T21:14:04.011Z,78346.22
2022-12-20T21:16:30.856Z,78344.31
2022-12-20T21:18:58.201Z,78348.16
2022-12-20T21:21:25.568Z,78346.22
2022-12-20T21:23:53.053Z,78344.31
2022-12-20T21:26:21.041Z,78332.72
2022-12-20T21:28:47.814Z,78332.72
2022-12-20T21:31:21.013Z,78332.72
2022-12-20T21:33:48.877Z,78325.03
2022-12-20T21:36:16.696Z,78323.09
2022-12-20T21:38:47.203Z,78309.59
2022-12-20T21:41:13.957Z,78315.38
2022-12-20T21:43:40.508Z,78323.09
2022-12-20T21:46:11.416Z,78330.81
2022-12-20T21:48:42.524Z,78332.72
2022-12-20T21:51:11.326Z,78323.09
2022-12-20T21:53:45.106Z,78319.25
2022-12-20T21:56:12.110Z,78323.09
2022-12-20T21:58:38.677Z,78325.03
2022-12-20T22:01:06.084Z,78317.31
2022-12-20T22:03:32.909Z,78309.59
2022-12-20T22:05:59.584Z,78309.59
2022-12-20T22:08:27.646Z,78305.75
2022-12-20T22:11:04.819Z,78305.75
2022-12-20T22:13:39.059Z,78301.88
2022-12-20T22:16:14.172Z,78305.75
2022-12-20T22:18:41.586Z,78301.88
2022-12-20T22:21:09.639Z,78309.59
2022-12-20T22:23:37.586Z,78317.31
2022-12-20T22:26:05.002Z,78313.44
2022-12-20T22:28:31.721Z,78315.38
2022-12-20T22:30:58.367Z,78309.59
2022-12-20T22:33:25.044Z,78305.75
2022-12-20T22:35:51.699Z,78305.75
2022-12-20T22:38:18.205Z,78307.66
2022-12-20T22:40:44.736Z,78301.88
2022-12-20T22:43:11.366Z,78290.31
2022-12-20T22:45:38.380Z,78290.31
2022-12-20T22:48:05.073Z,78290.31
2022-12-20T22:50:31.593Z,78286.47
2022-12-20T22:52:58.728Z,78278.75
2022-12-20T22:55:25.336Z,78271.03
2022-12-20T22:57:51.931Z,78267.19
2022-12-20T23:00:18.591Z,78265.25
2022-12-20T23:02:45.387Z,78261.41
2022-12-20T23:05:12.424Z,78255.63
2022-12-20T23:07:39.090Z,78261.41
2022-12-20T23:10:26.095Z,78265.25
2022-12-20T23:13:11.313Z,78259.47
2022-12-20T23:15:41.104Z,78255.63
2022-12-20T23:18:07.645Z,78255.63
2022-12-20T23:20:52.959Z,78247.91
2022-12-20T23:23:19.540Z,78240.19
2022-12-20T23:25:46.090Z,78247.91
2022-12-20T23:28:12.711Z,78236.34
2022-12-20T23:30:39.234Z,78232.47
2022-12-20T23:33:05.815Z,78224.78
2022-12-20T23:35:32.652Z,78224.78
2022-12-20T23:37:59.420Z,78224.78
2022-12-20T23:40:26.051Z,78222.84
2022-12-20T23:42:53.445Z,78217.06
2022-12-20T23:45:20.046Z,78220.91
2022-12-20T23:47:46.595Z,78215.13
2022-12-20T23:50:13.464Z,78217.06
2022-12-20T23:52:40.583Z,78224.78
2022-12-20T23:55:07.311Z,78228.63
2022-12-20T23:57:34.143Z,78234.41
